sensor_id;sensor_type;location;lat;lon;timestamp;P1;durP1;ratioP1;P2;durP2;ratioP2
78075;SDS011;67714;52.546;13.422;2023-02-15T00:00:19;36.4;;;23.7;;
78075;SDS011;67714;52.546;13.422;2023-02-15T00:02:20;36.9;;;24.5;;
78075;SDS011;67714;52.546;13.422;2023-02-15T00:04:22;36.4;;;23.9;;
78075;SDS011;67714;52.546;13.422;2023-02-15T00:06:25;36.4;;;24.5;;
78075;SDS011;67714;52.546;13.422;2023-02-15T00:08:26;38.8;;;24.8;;
78075;SDS011;67714;52.546;13.422;2023-02-15T00:10:27;37.6;;;24.2;;
78075;SDS011;67714;52.546;13.422;2023-02-15T00:12:29;41.4;;;26.7;;
78075;SDS011;67714;52.546;13.422;2023-02-15T00:14:30;38.7;;;25.4;;
78075;SDS011;67714;52.546;13.422;2023-02-15T00:16:31;39;;;26;;
78075;SDS011;67714;52.546;13.422;2023-02-15T00:18:33;38.9;;;25.2;;
78075;SDS011;67714;52.546;13.422;2023-02-15T00:20:34;38.1;;;25.3;;
78075;SDS011;67714;52.546;13.422;2023-02-15T00:22:35;39.3;;;26.1;;
78075;SDS011;67714;52.546;13.422;2023-02-15T00:24:37;44.4;;;27.1;;
78075;SDS011;67714;52.546;13.422;2023-02-15T00:26:38;41.8;;;26.8;;
78075;SDS011;67714;52.546;13.422;2023-02-15T00:28:40;41.3;;;26.5;;
78075;SDS011;67714;52.546;13.422;2023-02-15T00:30:41;39.5;;;26.2;;
78075;SDS011;67714;52.546;13.422;2023-02-15T00:32:43;41.6;;;26.4;;
78075;SDS011;67714;52.546;13.422;2023-02-15T00:34:44;39.7;;;26.6;;
78075;SDS011;67714;52.546;13.422;2023-02-15T00:36:45;47.3;;;29.7;;
78075;SDS011;67714;52.546;13.422;2023-02-15T00:38:47;49;;;31.7;;
78075;SDS011;67714;52.546;13.422;2023-02-15T00:40:51;43.2;;;28.9;;
78075;SDS011;67714;52.546;13.422;2023-02-15T00:42:52;45.7;;;29.8;;
78075;SDS011;67714;52.546;13.422;2023-02-15T00:44:54;45.2;;;28.5;;
78075;SDS011;67714;52.546;13.422;2023-02-15T00:46:55;45.4;;;28.7;;
78075;SDS011;67714;52.546;13.422;2023-02-15T00:48:56;46.9;;;29.3;;
78075;SDS011;67714;52.546;13.422;2023-02-15T00:50:58;44.2;;;28.3;;
78075;SDS011;67714;52.546;13.422;2023-02-15T00:53:00;45.9;;;30.7;;
78075;SDS011;67714;52.546;13.422;2023-02-15T00:55:01;46.3;;;30.9;;
78075;SDS011;67714;52.546;13.422;2023-02-15T00:57:03;47.8;;;29.7;;
78075;SDS011;67714;52.546;13.422;2023-02-15T00:59:04;45;;;29.3;;
78075;SDS011;67714;52.546;13.422;2023-02-15T01:01:06;45.6;;;29.9;;
78075;SDS011;67714;52.546;13.422;2023-02-15T01:03:09;45.4;;;29.4;;
78075;SDS011;67714;52.546;13.422;2023-02-15T01:05:11;47.4;;;29.7;;
78075;SDS011;67714;52.546;13.422;2023-02-15T01:07:12;48.6;;;30.7;;
78075;SDS011;67714;52.546;13.422;2023-02-15T01:09:14;47.8;;;29.7;;
78075;SDS011;67714;52.546;13.422;2023-02-15T01:11:16;50.8;;;31.4;;
78075;SDS011;67714;52.546;13.422;2023-02-15T01:13:18;48.6;;;30.8;;
78075;SDS011;67714;52.546;13.422;2023-02-15T01:15:20;48.3;;;29.4;;
78075;SDS011;67714;52.546;13.422;2023-02-15T01:17:22;49.5;;;29.4;;
78075;SDS011;67714;52.546;13.422;2023-02-15T01:19:24;49.5;;;30.6;;
78075;SDS011;67714;52.546;13.422;2023-02-15T01:21:25;46.6;;;29.3;;
78075;SDS011;67714;52.546;13.422;2023-02-15T01:23:27;44;;;28.6;;
78075;SDS011;67714;52.546;13.422;2023-02-15T01:25:28;45.8;;;28.9;;
78075;SDS011;67714;52.546;13.422;2023-02-15T01:27:29;46.5;;;29.2;;
78075;SDS011;67714;52.546;13.422;2023-02-15T01:29:31;47.7;;;27.6;;
78075;SDS011;67714;52.546;13.422;2023-02-15T01:31:32;44.9;;;27.6;;
78075;SDS011;67714;52.546;13.422;2023-02-15T01:33:34;48.7;;;29.5;;
78075;SDS011;67714;52.546;13.422;2023-02-15T01:35:36;47;;;29;;
78075;SDS011;67714;52.546;13.422;2023-02-15T01:37:37;43.8;;;28.6;;
78075;SDS011;67714;52.546;13.422;2023-02-15T01:39:39;44.7;;;28.2;;
78075;SDS011;67714;52.546;13.422;2023-02-15T01:41:40;44.4;;;27.6;;
78075;SDS011;67714;52.546;13.422;2023-02-15T01:43:42;49.9;;;31.6;;
78075;SDS011;67714;52.546;13.422;2023-02-15T01:45:45;46;;;30.1;;
78075;SDS011;67714;52.546;13.422;2023-02-15T01:47:48;48.9;;;30.1;;
78075;SDS011;67714;52.546;13.422;2023-02-15T01:49:55;45.8;;;29.5;;
78075;SDS011;67714;52.546;13.422;2023-02-15T01:52:01;47.8;;;29.7;;
78075;SDS011;67714;52.546;13.422;2023-02-15T01:54:05;50.6;;;31.2;;
78075;SDS011;67714;52.546;13.422;2023-02-15T01:56:11;48.9;;;30.1;;
78075;SDS011;67714;52.546;13.422;2023-02-15T01:58:15;49.2;;;31.4;;
78075;SDS011;67714;52.546;13.422;2023-02-15T02:00:18;49.8;;;31;;
78075;SDS011;67714;52.546;13.422;2023-02-15T02:02:19;50.7;;;31.1;;
78075;SDS011;67714;52.546;13.422;2023-02-15T02:04:22;50;;;31;;
78075;SDS011;67714;52.546;13.422;2023-02-15T02:06:27;48.7;;;30.8;;
78075;SDS011;67714;52.546;13.422;2023-02-15T02:08:29;50.6;;;30.4;;
78075;SDS011;67714;52.546;13.422;2023-02-15T02:10:30;51.3;;;32.1;;
78075;SDS011;67714;52.546;13.422;2023-02-15T02:12:32;50.1;;;31.6;;
78075;SDS011;67714;52.546;13.422;2023-02-15T02:14:34;50.9;;;31.4;;
78075;SDS011;67714;52.546;13.422;2023-02-15T02:16:38;46.4;;;30.3;;
78075;SDS011;67714;52.546;13.422;2023-02-15T02:18:45;48;;;31;;
78075;SDS011;67714;52.546;13.422;2023-02-15T02:20:59;49.8;;;31;;
78075;SDS011;67714;52.546;13.422;2023-02-15T02:23:28;48.2;;;30.4;;
78075;SDS011;67714;52.546;13.422;2023-02-15T02:25:43;48.6;;;29.6;;
78075;SDS011;67714;52.546;13.422;2023-02-15T02:27:56;49.2;;;30.7;;
78075;SDS011;67714;52.546;13.422;2023-02-15T02:30:13;47.9;;;29.8;;
78075;SDS011;67714;52.546;13.422;2023-02-15T02:32:28;50.7;;;31.2;;
78075;SDS011;67714;52.546;13.422;2023-02-15T02:35:11;52.9;;;31.6;;
78075;SDS011;67714;52.546;13.422;2023-02-15T02:37:19;50.5;;;31.6;;
78075;SDS011;67714;52.546;13.422;2023-02-15T02:39:27;50.7;;;31.8;;
78075;SDS011;67714;52.546;13.422;2023-02-15T02:41:36;52.6;;;33.6;;
78075;SDS011;67714;52.546;13.422;2023-02-15T02:43:44;52.9;;;33;;
78075;SDS011;67714;52.546;13.422;2023-02-15T02:45:50;55.2;;;33.5;;
78075;SDS011;67714;52.546;13.422;2023-02-15T02:47:56;56;;;33.9;;
78075;SDS011;67714;52.546;13.422;2023-02-15T02:50:02;53.6;;;33.5;;
78075;SDS011;67714;52.546;13.422;2023-02-15T02:52:07;58.6;;;34.6;;
78075;SDS011;67714;52.546;13.422;2023-02-15T02:54:34;57.5;;;34.1;;
78075;SDS011;67714;52.546;13.422;2023-02-15T02:56:37;56.2;;;34.2;;
78075;SDS011;67714;52.546;13.422;2023-02-15T02:58:42;54.6;;;33.2;;
78075;SDS011;67714;52.546;13.422;2023-02-15T03:00:48;57.8;;;33.7;;
78075;SDS011;67714;52.546;13.422;2023-02-15T03:02:56;57.3;;;34.6;;
78075;SDS011;67714;52.546;13.422;2023-02-15T03:05:02;60.1;;;35;;
78075;SDS011;67714;52.546;13.422;2023-02-15T03:07:07;57.7;;;33.6;;
78075;SDS011;67714;52.546;13.422;2023-02-15T03:09:11;56.8;;;33.8;;
78075;SDS011;67714;52.546;13.422;2023-02-15T03:11:15;57.2;;;35;;
78075;SDS011;67714;52.546;13.422;2023-02-15T03:13:17;59.7;;;35;;
78075;SDS011;67714;52.546;13.422;2023-02-15T03:15:19;57.9;;;34;;
78075;SDS011;67714;52.546;13.422;2023-02-15T03:17:22;58.9;;;35.1;;
78075;SDS011;67714;52.546;13.422;2023-02-15T03:19:28;60.4;;;35.2;;
78075;SDS011;67714;52.546;13.422;2023-02-15T03:21:32;59.1;;;34.8;;
78075;SDS011;67714;52.546;13.422;2023-02-15T03:23:37;60.3;;;34.7;;
78075;SDS011;67714;52.546;13.422;2023-02-15T03:25:40;61.1;;;35.7;;
78075;SDS011;67714;52.546;13.422;2023-02-15T03:27:44;62.2;;;36.4;;
78075;SDS011;67714;52.546;13.422;2023-02-15T03:29:48;63.8;;;37.4;;
78075;SDS011;67714;52.546;13.422;2023-02-15T03:31:53;64.8;;;37.9;;
78075;SDS011;67714;52.546;13.422;2023-02-15T03:33:58;64.9;;;37.5;;
78075;SDS011;67714;52.546;13.422;2023-02-15T03:36:02;70.8;;;39.1;;
78075;SDS011;67714;52.546;13.422;2023-02-15T03:38:09;72.2;;;38.8;;
78075;SDS011;67714;52.546;13.422;2023-02-15T03:40:16;67.4;;;38.5;;
78075;SDS011;67714;52.546;13.422;2023-02-15T03:42:22;69;;;39.8;;
78075;SDS011;67714;52.546;13.422;2023-02-15T03:44:28;68.7;;;39.6;;
78075;SDS011;67714;52.546;13.422;2023-02-15T03:46:31;71.6;;;40.8;;
78075;SDS011;67714;52.546;13.422;2023-02-15T03:48:35;74.1;;;42;;
78075;SDS011;67714;52.546;13.422;2023-02-15T03:50:38;72.8;;;39.3;;
78075;SDS011;67714;52.546;13.422;2023-02-15T03:52:40;72.3;;;41.7;;
78075;SDS011;67714;52.546;13.422;2023-02-15T03:54:42;74.7;;;42.3;;
78075;SDS011;67714;52.546;13.422;2023-02-15T03:56:44;78.6;;;44;;
78075;SDS011;67714;52.546;13.422;2023-02-15T03:58:45;75.8;;;45.7;;
78075;SDS011;67714;52.546;13.422;2023-02-15T04:00:48;78.3;;;43.9;;
78075;SDS011;67714;52.546;13.422;2023-02-15T04:03:00;79.1;;;43.8;;
78075;SDS011;67714;52.546;13.422;2023-02-15T04:05:07;75.9;;;41.9;;
78075;SDS011;67714;52.546;13.422;2023-02-15T04:07:09;74.8;;;42.3;;
78075;SDS011;67714;52.546;13.422;2023-02-15T04:09:11;75.4;;;42.4;;
78075;SDS011;67714;52.546;13.422;2023-02-15T04:11:13;76.4;;;41.9;;
78075;SDS011;67714;52.546;13.422;2023-02-15T04:13:14;77.5;;;41.5;;
78075;SDS011;67714;52.546;13.422;2023-02-15T04:15:15;74.6;;;42.1;;
78075;SDS011;67714;52.546;13.422;2023-02-15T04:17:17;76.2;;;41.3;;
78075;SDS011;67714;52.546;13.422;2023-02-15T04:19:18;78.3;;;43.3;;
78075;SDS011;67714;52.546;13.422;2023-02-15T04:21:20;76.8;;;41.3;;
78075;SDS011;67714;52.546;13.422;2023-02-15T04:23:22;78.7;;;41.3;;
78075;SDS011;67714;52.546;13.422;2023-02-15T04:25:23;82.7;;;43;;
78075;SDS011;67714;52.546;13.422;2023-02-15T04:27:25;76.9;;;41.3;;
78075;SDS011;67714;52.546;13.422;2023-02-15T04:29:27;71;;;39.3;;
78075;SDS011;67714;52.546;13.422;2023-02-15T04:31:29;73.4;;;40.2;;
78075;SDS011;67714;52.546;13.422;2023-02-15T04:33:30;70.9;;;39.5;;
78075;SDS011;67714;52.546;13.422;2023-02-15T04:35:31;74.2;;;40.3;;
78075;SDS011;67714;52.546;13.422;2023-02-15T04:37:32;75.6;;;41;;
78075;SDS011;67714;52.546;13.422;2023-02-15T04:39:34;75;;;40.8;;
78075;SDS011;67714;52.546;13.422;2023-02-15T04:41:35;76.9;;;40.9;;
78075;SDS011;67714;52.546;13.422;2023-02-15T04:43:37;74.3;;;41.2;;
78075;SDS011;67714;52.546;13.422;2023-02-15T04:45:38;72.8;;;39.6;;
78075;SDS011;67714;52.546;13.422;2023-02-15T04:47:40;75.6;;;40.3;;
78075;SDS011;67714;52.546;13.422;2023-02-15T04:49:41;73.2;;;39.6;;
78075;SDS011;67714;52.546;13.422;2023-02-15T04:51:43;79.1;;;40.8;;
78075;SDS011;67714;52.546;13.422;2023-02-15T04:53:44;73.8;;;40.2;;
78075;SDS011;67714;52.546;13.422;2023-02-15T04:55:45;72.4;;;39.2;;
78075;SDS011;67714;52.546;13.422;2023-02-15T04:57:46;71.1;;;38.8;;
78075;SDS011;67714;52.546;13.422;2023-02-15T04:59:48;72.8;;;39.6;;
78075;SDS011;67714;52.546;13.422;2023-02-15T05:01:49;65.6;;;37.5;;
78075;SDS011;67714;52.546;13.422;2023-02-15T05:03:50;72.7;;;39.6;;
78075;SDS011;67714;52.546;13.422;2023-02-15T05:05:52;69.9;;;37.5;;
78075;SDS011;67714;52.546;13.422;2023-02-15T05:07:53;68.2;;;38.5;;
78075;SDS011;67714;52.546;13.422;2023-02-15T05:09:55;69.5;;;39.8;;
78075;SDS011;67714;52.546;13.422;2023-02-15T05:11:56;70.9;;;38.4;;
78075;SDS011;67714;52.546;13.422;2023-02-15T05:13:57;68.4;;;38.4;;
78075;SDS011;67714;52.546;13.422;2023-02-15T05:15:58;73.1;;;39.2;;
78075;SDS011;67714;52.546;13.422;2023-02-15T05:18:00;69;;;37.2;;
78075;SDS011;67714;52.546;13.422;2023-02-15T05:20:01;71;;;37.9;;
78075;SDS011;67714;52.546;13.422;2023-02-15T05:22:02;65.2;;;36.8;;
78075;SDS011;67714;52.546;13.422;2023-02-15T05:24:04;66.1;;;37.2;;
78075;SDS011;67714;52.546;13.422;2023-02-15T05:26:15;66;;;36.7;;
78075;SDS011;67714;52.546;13.422;2023-02-15T05:28:18;65.7;;;36.9;;
78075;SDS011;67714;52.546;13.422;2023-02-15T05:30:19;73.5;;;40.2;;
78075;SDS011;67714;52.546;13.422;2023-02-15T05:32:21;66.7;;;37.6;;
78075;SDS011;67714;52.546;13.422;2023-02-15T05:34:22;70.9;;;38.4;;
78075;SDS011;67714;52.546;13.422;2023-02-15T05:36:23;69.6;;;37.5;;
78075;SDS011;67714;52.546;13.422;2023-02-15T05:38:25;70.2;;;37.8;;
78075;SDS011;67714;52.546;13.422;2023-02-15T05:40:26;66.4;;;37;;
78075;SDS011;67714;52.546;13.422;2023-02-15T05:42:27;66.5;;;36.2;;
78075;SDS011;67714;52.546;13.422;2023-02-15T05:44:29;67.8;;;38.2;;
78075;SDS011;67714;52.546;13.422;2023-02-15T05:46:30;67.1;;;37.2;;
78075;SDS011;67714;52.546;13.422;2023-02-15T05:48:31;71.2;;;38.1;;
78075;SDS011;67714;52.546;13.422;2023-02-15T05:50:33;66.5;;;36.5;;
78075;SDS011;67714;52.546;13.422;2023-02-15T05:52:34;64.7;;;36.3;;
78075;SDS011;67714;52.546;13.422;2023-02-15T05:54:36;69.2;;;38.6;;
78075;SDS011;67714;52.546;13.422;2023-02-15T05:56:37;66.5;;;36.9;;
78075;SDS011;67714;52.546;13.422;2023-02-15T05:58:39;68.4;;;37.1;;
78075;SDS011;67714;52.546;13.422;2023-02-15T06:00:42;71.4;;;38.9;;
78075;SDS011;67714;52.546;13.422;2023-02-15T06:02:43;68.9;;;37.3;;
78075;SDS011;67714;52.546;13.422;2023-02-15T06:04:44;73.4;;;38.6;;
78075;SDS011;67714;52.546;13.422;2023-02-15T06:06:45;70.1;;;37.6;;
78075;SDS011;67714;52.546;13.422;2023-02-15T06:08:47;70.7;;;38.7;;
78075;SDS011;67714;52.546;13.422;2023-02-15T06:10:48;74.2;;;38.9;;
78075;SDS011;67714;52.546;13.422;2023-02-15T06:12:49;71.4;;;38.5;;
78075;SDS011;67714;52.546;13.422;2023-02-15T06:14:51;72.2;;;38;;
78075;SDS011;67714;52.546;13.422;2023-02-15T06:16:52;75.1;;;39.3;;
78075;SDS011;67714;52.546;13.422;2023-02-15T06:18:53;71;;;38.5;;
78075;SDS011;67714;52.546;13.422;2023-02-15T06:20:54;74.7;;;39.2;;
78075;SDS011;67714;52.546;13.422;2023-02-15T06:22:56;69.3;;;37;;
78075;SDS011;67714;52.546;13.422;2023-02-15T06:24:57;73.6;;;38.2;;
78075;SDS011;67714;52.546;13.422;2023-02-15T06:26:58;75.1;;;39.6;;
78075;SDS011;67714;52.546;13.422;2023-02-15T06:28:59;73.5;;;38.6;;
78075;SDS011;67714;52.546;13.422;2023-02-15T06:31:01;72.2;;;37.5;;
78075;SDS011;67714;52.546;13.422;2023-02-15T06:33:02;75.8;;;38.3;;
78075;SDS011;67714;52.546;13.422;2023-02-15T06:35:03;78.5;;;41.1;;
78075;SDS011;67714;52.546;13.422;2023-02-15T06:37:05;73.8;;;38.5;;
78075;SDS011;67714;52.546;13.422;2023-02-15T06:39:06;72;;;37.8;;
78075;SDS011;67714;52.546;13.422;2023-02-15T06:41:07;79.8;;;40.8;;
78075;SDS011;67714;52.546;13.422;2023-02-15T06:43:09;78.8;;;39.7;;
78075;SDS011;67714;52.546;13.422;2023-02-15T06:45:10;80.7;;;41;;
78075;SDS011;67714;52.546;13.422;2023-02-15T06:47:12;80.3;;;40.7;;
78075;SDS011;67714;52.546;13.422;2023-02-15T06:51:44;72;;;37;;
78075;SDS011;67714;52.546;13.422;2023-02-15T06:53:45;72;;;37;;
78075;SDS011;67714;52.546;13.422;2023-02-15T06:55:46;73.9;;;37.5;;
78075;SDS011;67714;52.546;13.422;2023-02-15T06:57:47;76;;;38.4;;
78075;SDS011;67714;52.546;13.422;2023-02-15T06:59:48;76.4;;;40.2;;
78075;SDS011;67714;52.546;13.422;2023-02-15T07:01:50;83.8;;;40;;
78075;SDS011;67714;52.546;13.422;2023-02-15T07:03:51;76.6;;;39.6;;
78075;SDS011;67714;52.546;13.422;2023-02-15T07:05:54;83.3;;;39.1;;
78075;SDS011;67714;52.546;13.422;2023-02-15T07:07:55;75.7;;;37.9;;
78075;SDS011;67714;52.546;13.422;2023-02-15T07:09:56;76.8;;;38.7;;
78075;SDS011;67714;52.546;13.422;2023-02-15T07:11:58;74.9;;;37.9;;
78075;SDS011;67714;52.546;13.422;2023-02-15T07:13:59;80.3;;;37.6;;
78075;SDS011;67714;52.546;13.422;2023-02-15T07:16:00;84.7;;;38.8;;
78075;SDS011;67714;52.546;13.422;2023-02-15T07:18:03;92.1;;;39.8;;
78075;SDS011;67714;52.546;13.422;2023-02-15T07:20:05;80.4;;;40.5;;
78075;SDS011;67714;52.546;13.422;2023-02-15T07:22:08;92.3;;;39.3;;
78075;SDS011;67714;52.546;13.422;2023-02-15T07:24:09;81.8;;;37.7;;
78075;SDS011;67714;52.546;13.422;2023-02-15T07:26:11;86.3;;;38.2;;
78075;SDS011;67714;52.546;13.422;2023-02-15T07:28:12;105.5;;;41;;
78075;SDS011;67714;52.546;13.422;2023-02-15T07:30:15;79;;;37.8;;
78075;SDS011;67714;52.546;13.422;2023-02-15T07:32:17;78.6;;;38.8;;
78075;SDS011;67714;52.546;13.422;2023-02-15T07:34:18;74.8;;;37.6;;
78075;SDS011;67714;52.546;13.422;2023-02-15T07:36:20;88.3;;;39.9;;
78075;SDS011;67714;52.546;13.422;2023-02-15T07:38:21;84;;;38;;
78075;SDS011;67714;52.546;13.422;2023-02-15T07:40:22;74.5;;;36.5;;
78075;SDS011;67714;52.546;13.422;2023-02-15T07:42:24;78.6;;;36.5;;
78075;SDS011;67714;52.546;13.422;2023-02-15T07:44:25;80.5;;;38.7;;
78075;SDS011;67714;52.546;13.422;2023-02-15T07:46:27;77.8;;;37.6;;
78075;SDS011;67714;52.546;13.422;2023-02-15T07:48:28;92.4;;;39.9;;
78075;SDS011;67714;52.546;13.422;2023-02-15T07:50:29;85;;;38.6;;
78075;SDS011;67714;52.546;13.422;2023-02-15T07:52:31;84.2;;;39.2;;
78075;SDS011;67714;52.546;13.422;2023-02-15T07:54:32;83.5;;;37.4;;
78075;SDS011;67714;52.546;13.422;2023-02-15T07:56:36;102.7;;;38.6;;
78075;SDS011;67714;52.546;13.422;2023-02-15T07:58:37;75.7;;;36.7;;
78075;SDS011;67714;52.546;13.422;2023-02-15T08:00:39;92;;;39.5;;
78075;SDS011;67714;52.546;13.422;2023-02-15T08:02:40;101.1;;;38.8;;
78075;SDS011;67714;52.546;13.422;2023-02-15T08:04:41;75.9;;;37.8;;
78075;SDS011;67714;52.546;13.422;2023-02-15T08:06:43;82.2;;;39.8;;
78075;SDS011;67714;52.546;13.422;2023-02-15T08:08:45;74.8;;;37.7;;
78075;SDS011;67714;52.546;13.422;2023-02-15T08:10:46;70;;;35.8;;
78075;SDS011;67714;52.546;13.422;2023-02-15T08:12:47;73.7;;;37.3;;
78075;SDS011;67714;52.546;13.422;2023-02-15T08:14:49;75;;;36.9;;
78075;SDS011;67714;52.546;13.422;2023-02-15T08:16:50;72.1;;;38.1;;
78075;SDS011;67714;52.546;13.422;2023-02-15T08:18:53;72.6;;;37.1;;
78075;SDS011;67714;52.546;13.422;2023-02-15T08:20:54;73.3;;;37.5;;
78075;SDS011;67714;52.546;13.422;2023-02-15T08:22:55;70.1;;;35.9;;
78075;SDS011;67714;52.546;13.422;2023-02-15T08:24:56;65.9;;;35;;
78075;SDS011;67714;52.546;13.422;2023-02-15T08:26:58;70.3;;;37.2;;
78075;SDS011;67714;52.546;13.422;2023-02-15T08:29:00;64.9;;;35.5;;
78075;SDS011;67714;52.546;13.422;2023-02-15T08:31:05;67.9;;;36.1;;
78075;SDS011;67714;52.546;13.422;2023-02-15T08:33:07;68;;;36.5;;
78075;SDS011;67714;52.546;13.422;2023-02-15T08:35:08;68.2;;;35.7;;
78075;SDS011;67714;52.546;13.422;2023-02-15T08:37:10;66.6;;;34.6;;
78075;SDS011;67714;52.546;13.422;2023-02-15T08:39:12;66.8;;;35.5;;
78075;SDS011;67714;52.546;13.422;2023-02-15T08:41:15;64.1;;;35;;
78075;SDS011;67714;52.546;13.422;2023-02-15T08:43:19;68.6;;;36;;
78075;SDS011;67714;52.546;13.422;2023-02-15T08:45:20;65.9;;;35.9;;
78075;SDS011;67714;52.546;13.422;2023-02-15T08:47:21;68.7;;;36.2;;
78075;SDS011;67714;52.546;13.422;2023-02-15T08:49:22;70;;;37.4;;
78075;SDS011;67714;52.546;13.422;2023-02-15T08:51:25;75.5;;;39.7;;
78075;SDS011;67714;52.546;13.422;2023-02-15T08:53:29;69.1;;;36.5;;
78075;SDS011;67714;52.546;13.422;2023-02-15T08:55:31;71.7;;;37.7;;
78075;SDS011;67714;52.546;13.422;2023-02-15T08:57:32;73.6;;;37.2;;
78075;SDS011;67714;52.546;13.422;2023-02-15T08:59:34;72.6;;;37.5;;
78075;SDS011;67714;52.546;13.422;2023-02-15T09:01:35;68.4;;;36.7;;
78075;SDS011;67714;52.546;13.422;2023-02-15T09:03:36;66.6;;;35.1;;
78075;SDS011;67714;52.546;13.422;2023-02-15T09:05:37;70.3;;;36.4;;
78075;SDS011;67714;52.546;13.422;2023-02-15T09:07:39;68.5;;;37;;
78075;SDS011;67714;52.546;13.422;2023-02-15T09:09:40;64.7;;;35.5;;
78075;SDS011;67714;52.546;13.422;2023-02-15T09:11:42;69;;;35.9;;
78075;SDS011;67714;52.546;13.422;2023-02-15T09:13:44;64.1;;;34.4;;
78075;SDS011;67714;52.546;13.422;2023-02-15T09:15:45;68.3;;;35.3;;
78075;SDS011;67714;52.546;13.422;2023-02-15T09:17:47;63.2;;;34.1;;
78075;SDS011;67714;52.546;13.422;2023-02-15T09:19:48;63.5;;;33.3;;
78075;SDS011;67714;52.546;13.422;2023-02-15T09:21:50;63.4;;;34.1;;
78075;SDS011;67714;52.546;13.422;2023-02-15T09:23:52;61.3;;;34.5;;
78075;SDS011;67714;52.546;13.422;2023-02-15T09:26:01;62.4;;;34.7;;
78075;SDS011;67714;52.546;13.422;2023-02-15T09:28:03;65.3;;;34.2;;
78075;SDS011;67714;52.546;13.422;2023-02-15T09:30:04;64.3;;;34.6;;
78075;SDS011;67714;52.546;13.422;2023-02-15T09:32:06;61.4;;;34.6;;
78075;SDS011;67714;52.546;13.422;2023-02-15T09:34:07;58.4;;;34.3;;
78075;SDS011;67714;52.546;13.422;2023-02-15T09:36:13;67.6;;;34.4;;
78075;SDS011;67714;52.546;13.422;2023-02-15T09:38:16;60.9;;;33.4;;
78075;SDS011;67714;52.546;13.422;2023-02-15T09:40:17;60.8;;;31.6;;
78075;SDS011;67714;52.546;13.422;2023-02-15T09:42:26;61;;;34.3;;
78075;SDS011;67714;52.546;13.422;2023-02-15T09:44:42;59.3;;;33.8;;
78075;SDS011;67714;52.546;13.422;2023-02-15T09:46:58;54.6;;;30.7;;
78075;SDS011;67714;52.546;13.422;2023-02-15T09:49:07;59.1;;;32.3;;
78075;SDS011;67714;52.546;13.422;2023-02-15T09:51:19;58.9;;;34.5;;
78075;SDS011;67714;52.546;13.422;2023-02-15T09:53:30;54.8;;;31.6;;
78075;SDS011;67714;52.546;13.422;2023-02-15T09:55:38;56;;;31.6;;
78075;SDS011;67714;52.546;13.422;2023-02-15T09:57:51;55.8;;;30.9;;
78075;SDS011;67714;52.546;13.422;2023-02-15T09:59:59;54.7;;;31.8;;
78075;SDS011;67714;52.546;13.422;2023-02-15T10:02:10;55.4;;;31.5;;
78075;SDS011;67714;52.546;13.422;2023-02-15T10:04:23;55.5;;;31.8;;
78075;SDS011;67714;52.546;13.422;2023-02-15T10:06:35;54.1;;;31.1;;
78075;SDS011;67714;52.546;13.422;2023-02-15T10:08:40;54;;;32.1;;
78075;SDS011;67714;52.546;13.422;2023-02-15T10:10:51;53.4;;;30.7;;
78075;SDS011;67714;52.546;13.422;2023-02-15T10:13:07;55.3;;;31.1;;
78075;SDS011;67714;52.546;13.422;2023-02-15T10:15:20;50.3;;;30.3;;
78075;SDS011;67714;52.546;13.422;2023-02-15T10:17:30;52.7;;;32.1;;
78075;SDS011;67714;52.546;13.422;2023-02-15T10:19:41;50.7;;;31.5;;
78075;SDS011;67714;52.546;13.422;2023-02-15T10:21:52;52.9;;;31.9;;
78075;SDS011;67714;52.546;13.422;2023-02-15T10:24:04;57.7;;;32.5;;
78075;SDS011;67714;52.546;13.422;2023-02-15T10:26:16;51.3;;;31.1;;
78075;SDS011;67714;52.546;13.422;2023-02-15T10:28:19;54.1;;;31;;
78075;SDS011;67714;52.546;13.422;2023-02-15T10:30:27;52.2;;;31;;
78075;SDS011;67714;52.546;13.422;2023-02-15T10:32:36;52.2;;;30.3;;
78075;SDS011;67714;52.546;13.422;2023-02-15T10:34:47;52.4;;;31.3;;
78075;SDS011;67714;52.546;13.422;2023-02-15T10:36:56;54.8;;;31;;
78075;SDS011;67714;52.546;13.422;2023-02-15T10:39:04;52.7;;;30.8;;
78075;SDS011;67714;52.546;13.422;2023-02-15T10:41:15;49.3;;;30.1;;
78075;SDS011;67714;52.546;13.422;2023-02-15T10:43:25;50.5;;;29.2;;
78075;SDS011;67714;52.546;13.422;2023-02-15T10:45:39;52.7;;;31.4;;
78075;SDS011;67714;52.546;13.422;2023-02-15T10:47:49;53;;;30.4;;
78075;SDS011;67714;52.546;13.422;2023-02-15T10:50:17;51.6;;;31.2;;
78075;SDS011;67714;52.546;13.422;2023-02-15T10:52:28;47.3;;;29.5;;
78075;SDS011;67714;52.546;13.422;2023-02-15T10:54:37;46.8;;;29.4;;
78075;SDS011;67714;52.546;13.422;2023-02-15T10:56:45;45.9;;;28.1;;
78075;SDS011;67714;52.546;13.422;2023-02-15T10:58:57;48.8;;;29.7;;
78075;SDS011;67714;52.546;13.422;2023-02-15T11:01:10;44.4;;;28.2;;
78075;SDS011;67714;52.546;13.422;2023-02-15T11:03:18;44.5;;;27.6;;
78075;SDS011;67714;52.546;13.422;2023-02-15T11:05:29;44.3;;;28.1;;
78075;SDS011;67714;52.546;13.422;2023-02-15T11:07:38;44.4;;;27.7;;
78075;SDS011;67714;52.546;13.422;2023-02-15T11:09:44;46;;;28;;
78075;SDS011;67714;52.546;13.422;2023-02-15T11:11:49;46.2;;;28.7;;
78075;SDS011;67714;52.546;13.422;2023-02-15T11:13:54;45;;;28.1;;
78075;SDS011;67714;52.546;13.422;2023-02-15T11:16:00;44.1;;;28.4;;
78075;SDS011;67714;52.546;13.422;2023-02-15T11:18:05;45.6;;;27.8;;
78075;SDS011;67714;52.546;13.422;2023-02-15T11:20:15;44.1;;;27.5;;
78075;SDS011;67714;52.546;13.422;2023-02-15T11:22:21;42.7;;;27.5;;
78075;SDS011;67714;52.546;13.422;2023-02-15T11:24:24;43.1;;;27.2;;
78075;SDS011;67714;52.546;13.422;2023-02-15T11:26:29;42.7;;;28.5;;
78075;SDS011;67714;52.546;13.422;2023-02-15T11:28:34;41.7;;;27.2;;
78075;SDS011;67714;52.546;13.422;2023-02-15T11:30:40;42;;;28;;
78075;SDS011;67714;52.546;13.422;2023-02-15T11:32:45;39.8;;;26.6;;
78075;SDS011;67714;52.546;13.422;2023-02-15T11:34:49;42.7;;;27.2;;
78075;SDS011;67714;52.546;13.422;2023-02-15T11:36:54;41.3;;;26.8;;
78075;SDS011;67714;52.546;13.422;2023-02-15T11:39:01;39.5;;;25.5;;
78075;SDS011;67714;52.546;13.422;2023-02-15T11:41:05;38.9;;;26.1;;
78075;SDS011;67714;52.546;13.422;2023-02-15T11:43:11;39.1;;;25.9;;
78075;SDS011;67714;52.546;13.422;2023-02-15T11:45:19;37.5;;;24;;
78075;SDS011;67714;52.546;13.422;2023-02-15T11:47:23;38.7;;;25.7;;
78075;SDS011;67714;52.546;13.422;2023-02-15T11:49:25;38.5;;;24.7;;
78075;SDS011;67714;52.546;13.422;2023-02-15T11:51:29;38.2;;;24.9;;
78075;SDS011;67714;52.546;13.422;2023-02-15T11:53:31;39.1;;;24.5;;
78075;SDS011;67714;52.546;13.422;2023-02-15T11:55:34;39.6;;;25.7;;
78075;SDS011;67714;52.546;13.422;2023-02-15T11:57:38;38.5;;;24.7;;
78075;SDS011;67714;52.546;13.422;2023-02-15T11:59:44;37.7;;;23.9;;
78075;SDS011;67714;52.546;13.422;2023-02-15T12:01:50;42;;;25.5;;
78075;SDS011;67714;52.546;13.422;2023-02-15T12:03:51;37.2;;;24.7;;
78075;SDS011;67714;52.546;13.422;2023-02-15T12:05:56;37.7;;;24.7;;
78075;SDS011;67714;52.546;13.422;2023-02-15T12:08:03;39.6;;;23.9;;
78075;SDS011;67714;52.546;13.422;2023-02-15T12:10:16;36.5;;;23.2;;
78075;SDS011;67714;52.546;13.422;2023-02-15T12:12:21;36.5;;;23.2;;
78075;SDS011;67714;52.546;13.422;2023-02-15T12:14:23;34.7;;;23;;
78075;SDS011;67714;52.546;13.422;2023-02-15T12:16:25;36.3;;;23;;
78075;SDS011;67714;52.546;13.422;2023-02-15T12:18:33;36.2;;;23.5;;
78075;SDS011;67714;52.546;13.422;2023-02-15T12:20:36;33.9;;;22.5;;
78075;SDS011;67714;52.546;13.422;2023-02-15T12:22:39;34.9;;;23.9;;